Time;durP1;ratioP1;P1;durP2;ratioP2;P2;SDS_P1;SDS_P2;PMS_P1;PMS_P2;Temp;Humidity;BMP_temperature;BMP_pressure;BME280_temperature;BME280_humidity;BME280_pressure;Samples;Min_cycle;Max_cycle;Signal;HPM_P1;HPM_P2
2023/08/31 00:02:01;;;;;;;3.67;2.50;;;13.50;99.90;;;;;;4995286;28;20050;-37
2023/08/31 00:04:26;;;;;;;3.28;2.45;;;13.50;99.90;;;;;;4999389;28;20041;-33
2023/08/31 00:06:52;;;;;;;2.78;2.55;;;13.50;99.90;;;;;;5003815;28;20488;-36
2023/08/31 00:09:18;;;;;;;2.47;2.28;;;13.60;99.90;;;;;;4998990;28;20096;-33
2023/08/31 00:11:45;;;;;;;2.83;2.60;;;13.50;99.90;;;;;;5000383;28;20112;-34
2023/08/31 00:14:10;;;;;;;3.40;2.35;;;13.60;99.90;;;;;;5000919;28;20026;-37
2023/08/31 00:16:37;;;;;;;2.92;2.65;;;13.50;99.90;;;;;;5001834;28;20121;-34
2023/08/31 00:19:02;;;;;;;2.80;2.60;;;13.50;99.90;;;;;;5000921;28;20589;-35
2023/08/31 00:21:30;;;;;;;4.30;2.85;;;13.50;99.90;;;;;;5000675;28;20014;-34
2023/08/31 00:23:55;;;;;;;4.10;2.73;;;13.50;99.90;;;;;;5000873;28;20476;-33
2023/08/31 00:26:21;;;;;;;3.03;2.72;;;13.50;99.90;;;;;;5004097;28;20296;-33
2023/08/31 00:28:47;;;;;;;3.88;3.00;;;13.40;99.90;;;;;;5007648;28;20026;-30
2023/08/31 00:31:13;;;;;;;3.70;2.90;;;13.40;99.90;;;;;;5001035;28;20058;-37
2023/08/31 00:33:38;;;;;;;3.30;3.03;;;13.30;99.90;;;;;;5018818;28;20022;-31
2023/08/31 00:36:04;;;;;;;3.25;2.95;;;13.30;99.90;;;;;;4999880;28;20033;-36
2023/08/31 00:38:33;;;;;;;3.17;2.88;;;13.30;99.90;;;;;;5000181;28;20034;-31
2023/08/31 00:40:59;;;;;;;3.88;2.92;;;13.20;99.90;;;;;;4998227;28;20030;-31
2023/08/31 00:43:26;;;;;;;3.20;2.90;;;13.30;99.90;;;;;;5000922;28;20044;-31
2023/08/31 00:45:57;;;;;;;3.25;2.88;;;13.30;99.90;;;;;;4998058;28;20026;-33
2023/08/31 00:48:24;;;;;;;3.25;2.95;;;13.40;99.90;;;;;;4996765;28;20112;-33
2023/08/31 00:50:50;;;;;;;5.10;3.55;;;13.40;99.90;;;;;;4998428;28;20046;-30
2023/08/31 00:53:17;;;;;;;4.28;3.60;;;13.40;99.90;;;;;;5001146;28;20026;-32
2023/08/31 00:55:47;;;;;;;4.20;3.72;;;13.40;99.90;;;;;;5003094;28;20192;-31
2023/08/31 00:58:13;;;;;;;4.47;3.55;;;13.40;99.90;;;;;;4999718;28;20483;-32
2023/08/31 01:01:17;;;;;;;3.67;3.38;;;13.40;99.90;;;;;;5002878;28;20411;-32
2023/08/31 01:04:02;;;;;;;4.93;3.63;;;13.40;99.90;;;;;;5002619;28;20455;-31
2023/08/31 01:07:00;;;;;;;4.00;3.50;;;13.40;99.90;;;;;;5017847;28;20041;-30
2023/08/31 01:10:05;;;;;;;4.10;3.70;;;13.40;99.90;;;;;;4990710;28;20033;-34
2023/08/31 01:12:47;;;;;;;4.45;3.80;;;13.40;99.90;;;;;;4984521;28;20147;-34
2023/08/31 01:15:14;;;;;;;4.18;3.50;;;13.40;99.90;;;;;;5003852;28;20056;-31
2023/08/31 01:17:46;;;;;;;4.72;4.07;;;13.40;99.90;;;;;;5001866;28;20770;-33
2023/08/31 01:20:17;;;;;;;4.10;3.70;;;13.50;99.90;;;;;;4995121;28;20045;-31
2023/08/31 01:22:59;;;;;;;3.92;3.53;;;13.50;99.90;;;;;;5017299;28;20034;-31
2023/08/31 01:25:26;;;;;;;3.75;3.45;;;13.50;99.90;;;;;;4996290;28;20557;-31
2023/08/31 01:27:52;;;;;;;4.18;3.60;;;13.50;99.90;;;;;;5000720;28;20091;-33
2023/08/31 01:30:18;;;;;;;4.60;3.88;;;13.50;99.90;;;;;;4999750;28;20062;-32
2023/08/31 01:32:47;;;;;;;4.10;3.70;;;13.50;99.90;;;;;;5002252;28;20262;-34
2023/08/31 01:35:16;;;;;;;4.43;3.80;;;13.50;99.90;;;;;;4999384;28;20064;-32
2023/08/31 01:37:57;;;;;;;4.50;3.60;;;13.50;99.90;;;;;;5000601;28;20041;-32
2023/08/31 01:40:49;;;;;;;4.57;3.90;;;13.50;99.90;;;;;;4998529;28;20069;-29
2023/08/31 01:43:17;;;;;;;4.18;3.75;;;13.50;99.90;;;;;;5001342;28;20036;-30
2023/08/31 01:45:44;;;;;;;6.32;4.43;;;13.50;99.90;;;;;;5002002;28;20499;-32
2023/08/31 01:48:11;;;;;;;5.43;4.20;;;13.50;99.90;;;;;;5001738;28;20048;-33
2023/08/31 01:50:37;;;;;;;4.50;4.10;;;13.40;99.90;;;;;;4998735;28;20109;-28
2023/08/31 01:53:02;;;;;;;6.30;4.10;;;13.50;99.90;;;;;;4997474;28;20612;-33
2023/08/31 01:55:28;;;;;;;4.78;4.22;;;13.50;99.90;;;;;;5004731;28;20088;-31
2023/08/31 01:57:54;;;;;;;4.93;4.00;;;13.50;99.90;;;;;;4997341;28;20824;-33
2023/08/31 02:00:20;;;;;;;5.72;3.75;;;13.50;99.90;;;;;;4999146;28;20289;-31
2023/08/31 02:02:46;;;;;;;4.32;3.90;;;13.50;99.90;;;;;;5014239;28;20042;-33
2023/08/31 02:05:12;;;;;;;4.85;3.60;;;13.50;99.90;;;;;;4997724;28;20021;-34
2023/08/31 02:07:40;;;;;;;5.13;4.72;;;13.50;99.90;;;;;;4995707;28;20044;-34
2023/08/31 02:10:06;;;;;;;4.43;4.03;;;13.60;99.90;;;;;;4999345;28;20109;-30
2023/08/31 02:12:32;;;;;;;4.00;3.70;;;13.50;99.90;;;;;;4999046;28;20057;-34
2023/08/31 02:14:59;;;;;;;3.80;3.50;;;13.50;99.90;;;;;;5000516;28;20029;-34
2023/08/31 02:17:25;;;;;;;6.07;4.15;;;13.50;99.90;;;;;;5000175;28;20538;-32
2023/08/31 02:19:51;;;;;;;3.78;3.35;;;13.50;99.90;;;;;;4998188;28;20030;-34
2023/08/31 02:22:16;;;;;;;5.28;4.00;;;13.50;99.90;;;;;;4998067;28;20030;-32
2023/08/31 02:24:42;;;;;;;4.30;3.90;;;13.60;99.90;;;;;;5001491;28;20037;-33
2023/08/31 02:27:07;;;;;;;4.57;4.18;;;13.50;99.90;;;;;;4997653;28;20054;-34
2023/08/31 02:29:33;;;;;;;5.28;4.28;;;13.50;99.90;;;;;;4997050;28;20023;-34
2023/08/31 02:31:59;;;;;;;4.88;4.35;;;13.50;99.90;;;;;;4995574;28;20030;-35
2023/08/31 02:34:24;;;;;;;6.53;4.68;;;13.40;99.90;;;;;;5003747;28;20068;-32
2023/08/31 02:36:50;;;;;;;5.53;4.90;;;13.40;99.90;;;;;;5007571;28;20124;-33
2023/08/31 02:39:16;;;;;;;4.70;4.25;;;13.40;99.90;;;;;;4998048;28;20158;-33
2023/08/31 02:41:41;;;;;;;5.07;4.20;;;13.30;99.90;;;;;;5000357;28;20369;-36
2023/08/31 02:44:07;;;;;;;5.38;4.55;;;13.40;99.90;;;;;;4997603;28;20116;-35
2023/08/31 02:46:32;;;;;;;5.47;4.22;;;13.30;99.90;;;;;;5000131;28;20033;-36
2023/08/31 02:48:58;;;;;;;5.47;3.83;;;13.40;99.90;;;;;;4993629;28;20107;-32
2023/08/31 02:51:24;;;;;;;6.47;4.18;;;13.40;99.90;;;;;;4997705;28;20160;-35
2023/08/31 02:53:50;;;;;;;5.35;4.40;;;13.40;99.90;;;;;;4993823;28;20569;-35
2023/08/31 02:56:15;;;;;;;5.65;4.25;;;13.40;99.90;;;;;;4996104;28;20105;-34
2023/08/31 02:58:41;;;;;;;4.90;4.10;;;13.50;99.90;;;;;;5000110;28;20029;-34
2023/08/31 03:01:11;;;;;;;4.38;3.95;;;13.50;99.90;;;;;;4998311;28;20076;-33
2023/08/31 03:03:38;;;;;;;4.60;4.07;;;13.60;99.90;;;;;;5001178;28;20018;-33
2023/08/31 03:06:04;;;;;;;4.18;3.75;;;13.50;99.90;;;;;;5001320;28;20026;-32
2023/08/31 03:08:29;;;;;;;4.13;3.72;;;13.50;99.90;;;;;;5000323;28;20625;-35
2023/08/31 03:10:56;;;;;;;5.65;3.83;;;13.50;99.90;;;;;;5003236;28;20040;-33
2023/08/31 03:13:22;;;;;;;4.03;3.63;;;13.40;99.90;;;;;;5000654;28;20030;-36
2023/08/31 03:15:48;;;;;;;3.92;3.60;;;13.40;99.90;;;;;;5000283;28;20499;-35
2023/08/31 03:18:13;;;;;;;4.25;3.83;;;13.40;99.90;;;;;;5001477;28;20589;-35
2023/08/31 03:20:39;;;;;;;4.15;3.28;;;13.40;99.90;;;;;;5001099;28;20139;-32
2023/08/31 03:23:04;;;;;;;5.35;4.07;;;13.30;99.90;;;;;;4998545;28;20041;-32
2023/08/31 03:25:30;;;;;;;5.03;3.83;;;13.40;99.90;;;;;;4998558;28;20030;-34
2023/08/31 03:27:56;;;;;;;3.47;3.22;;;13.30;99.90;;;;;;4997826;28;20069;-32
2023/08/31 03:30:21;;;;;;;3.53;3.22;;;13.20;99.90;;;;;;4996393;28;20127;-35
2023/08/31 03:32:47;;;;;;;4.72;3.58;;;13.10;99.90;;;;;;5002439;28;20026;-34
2023/08/31 03:35:13;;;;;;;4.97;3.50;;;13.00;99.90;;;;;;5003165;28;20099;-34
2023/08/31 03:37:38;;;;;;;3.55;3.22;;;13.00;99.90;;;;;;4999571;28;20527;-32
2023/08/31 03:40:06;;;;;;;4.78;3.50;;;13.00;99.90;;;;;;5004012;28;20029;-33
2023/08/31 03:42:33;;;;;;;5.47;3.72;;;13.00;99.90;;;;;;4999539;28;20045;-34
2023/08/31 03:44:59;;;;;;;3.60;3.30;;;13.00;99.90;;;;;;5001062;28;20116;-33
2023/08/31 03:47:24;;;;;;;6.55;3.70;;;13.00;99.90;;;;;;4999489;28;20026;-35
2023/08/31 03:49:50;;;;;;;3.47;3.20;;;13.00;99.90;;;;;;5001743;28;20022;-32
2023/08/31 03:52:16;;;;;;;4.78;3.63;;;12.90;99.90;;;;;;5002422;28;20033;-34
2023/08/31 03:54:41;;;;;;;5.00;3.38;;;12.90;99.90;;;;;;4995404;28;20062;-35
2023/08/31 03:57:07;;;;;;;7.72;3.50;;;12.90;99.90;;;;;;5000296;28;20121;-32
2023/08/31 03:59:32;;;;;;;3.53;3.22;;;12.90;99.90;;;;;;4999055;28;20036;-32
2023/08/31 04:01:59;;;;;;;4.13;3.25;;;12.90;99.90;;;;;;4998078;28;20461;-32
2023/08/31 04:04:24;;;;;;;5.03;3.55;;;12.90;99.90;;;;;;4997533;28;20606;-36
2023/08/31 04:06:50;;;;;;;3.90;3.30;;;12.80;99.90;;;;;;5001505;28;20042;-34
2023/08/31 04:09:16;;;;;;;4.10;3.65;;;12.80;99.90;;;;;;4996724;28;20033;-32
2023/08/31 04:11:41;;;;;;;5.05;3.38;;;12.70;99.90;;;;;;5000498;28;20026;-36
2023/08/31 04:14:07;;;;;;;4.72;3.70;;;12.80;99.90;;;;;;5003202;28;20026;-32
2023/08/31 04:16:32;;;;;;;4.28;3.88;;;12.80;99.90;;;;;;4998765;28;20116;-33
2023/08/31 04:18:58;;;;;;;4.82;3.42;;;12.80;99.90;;;;;;5001604;28;20415;-32
2023/08/31 04:21:24;;;;;;;5.53;3.17;;;12.80;99.90;;;;;;4997576;28;20851;-32
2023/08/31 04:23:49;;;;;;;5.07;3.17;;;12.80;99.90;;;;;;5000649;28;20033;-35
2023/08/31 04:26:17;;;;;;;5.63;4.13;;;12.80;99.90;;;;;;5002790;28;20030;-34
2023/08/31 04:28:43;;;;;;;4.00;3.60;;;12.80;99.90;;;;;;5002066;28;20473;-33
2023/08/31 04:31:09;;;;;;;3.33;3.00;;;12.90;99.90;;;;;;4997523;28;21475;-34
2023/08/31 04:33:35;;;;;;;3.72;3.17;;;12.90;99.90;;;;;;5001288;28;20057;-37
2023/08/31 04:36:01;;;;;;;4.07;2.72;;;12.80;99.90;;;;;;4998945;28;20473;-33
2023/08/31 04:38:28;;;;;;;4.53;2.97;;;12.80;99.90;;;;;;4998885;28;20027;-31
2023/08/31 04:40:54;;;;;;;5.07;3.10;;;12.80;99.90;;;;;;4999746;28;20040;-32
2023/08/31 04:43:20;;;;;;;4.90;3.00;;;12.80;99.90;;;;;;4998210;28;20442;-31
2023/08/31 04:45:47;;;;;;;4.53;2.83;;;12.80;99.90;;;;;;5001796;28;20045;-30
2023/08/31 04:48:15;;;;;;;4.53;2.83;;;12.80;99.90;;;;;;4996419;28;20164;-34
2023/08/31 04:50:41;;;;;;;3.80;2.90;;;12.80;99.90;;;;;;4999364;28;20463;-30
2023/08/31 04:53:08;;;;;;;3.28;2.97;;;12.70;99.90;;;;;;4999852;28;20030;-34
2023/08/31 04:55:33;;;;;;;3.33;2.80;;;12.70;99.90;;;;;;5000353;28;20064;-31
2023/08/31 04:57:59;;;;;;;4.88;2.85;;;12.80;99.90;;;;;;4998462;28;20503;-34
2023/08/31 05:00:25;;;;;;;3.17;2.88;;;12.80;99.90;;;;;;4998764;28;20030;-31
2023/08/31 05:02:52;;;;;;;3.30;3.00;;;12.80;99.90;;;;;;4992303;28;20062;-31
2023/08/31 05:05:18;;;;;;;3.33;2.95;;;12.80;99.90;;;;;;5001739;28;20086;-31
2023/08/31 05:07:44;;;;;;;3.00;2.70;;;12.80;99.90;;;;;;4999649;28;20050;-33
2023/08/31 05:10:10;;;;;;;3.90;2.80;;;12.80;99.90;;;;;;4997872;28;20038;-33
2023/08/31 05:12:37;;;;;;;4.35;3.10;;;12.80;99.90;;;;;;5001658;28;20076;-31
2023/08/31 05:15:03;;;;;;;2.65;2.45;;;12.90;99.90;;;;;;4999803;28;20041;-31
2023/08/31 05:17:30;;;;;;;4.75;2.80;;;12.90;99.90;;;;;;5004846;28;20468;-33
2023/08/31 05:19:56;;;;;;;4.37;2.77;;;12.90;99.90;;;;;;5006107;28;20040;-36
2023/08/31 05:22:22;;;;;;;3.47;2.78;;;12.90;99.90;;;;;;5006087;28;20037;-33
2023/08/31 05:24:49;;;;;;;2.92;2.63;;;12.90;99.90;;;;;;4998186;28;20141;-32
2023/08/31 05:27:15;;;;;;;5.43;3.10;;;12.90;99.90;;;;;;4995223;28;20779;-33
2023/08/31 05:29:41;;;;;;;3.08;2.78;;;13.00;99.90;;;;;;5002854;28;20176;-32
2023/08/31 05:32:08;;;;;;;5.05;3.22;;;13.00;99.90;;;;;;5002126;28;20520;-31
2023/08/31 05:34:37;;;;;;;3.35;2.70;;;13.10;99.90;;;;;;5003418;28;20446;-34
2023/08/31 05:37:07;;;;;;;3.38;3.05;;;13.10;99.90;;;;;;5001739;28;20512;-33
2023/08/31 05:39:33;;;;;;;3.22;2.80;;;13.10;99.90;;;;;;5017111;28;20034;-33
2023/08/31 05:41:59;;;;;;;3.00;2.72;;;13.10;99.90;;;;;;4996019;28;20045;-33
2023/08/31 05:44:25;;;;;;;4.35;2.83;;;13.00;99.90;;;;;;5004594;28;20040;-30
2023/08/31 05:46:51;;;;;;;3.05;2.70;;;13.10;99.90;;;;;;4996960;28;20125;-33
2023/08/31 05:49:16;;;;;;;3.75;3.08;;;13.10;99.90;;;;;;5000966;28;20124;-33
2023/08/31 05:51:42;;;;;;;3.72;2.88;;;13.20;99.90;;;;;;5000286;28;20036;-34
2023/08/31 05:54:12;;;;;;;3.17;2.80;;;13.20;99.90;;;;;;5002330;28;20426;-34
2023/08/31 05:56:39;;;;;;;3.30;3.00;;;13.20;99.90;;;;;;4995880;28;20205;-33
2023/08/31 05:59:05;;;;;;;3.72;2.60;;;13.20;99.90;;;;;;4990372;28;20038;-36
2023/08/31 06:01:31;;;;;;;4.72;2.67;;;13.20;99.90;;;;;;5001373;28;20046;-35
2023/08/31 06:03:57;;;;;;;2.78;2.58;;;13.20;99.90;;;;;;4999414;28;20041;-35
2023/08/31 06:06:23;;;;;;;3.13;2.90;;;13.30;99.90;;;;;;5001121;28;20026;-35
2023/08/31 06:08:48;;;;;;;3.92;2.92;;;13.30;99.90;;;;;;4999533;28;20030;-35
2023/08/31 06:11:14;;;;;;;3.38;2.95;;;13.30;99.90;;;;;;5002858;28;20550;-32
2023/08/31 06:13:40;;;;;;;3.63;3.00;;;13.20;99.90;;;;;;5000238;28;20855;-32
2023/08/31 06:16:07;;;;;;;2.80;2.50;;;13.20;99.90;;;;;;4996873;28;20085;-32
2023/08/31 06:18:32;;;;;;;4.88;2.80;;;13.20;99.90;;;;;;4993660;28;20037;-35
2023/08/31 06:20:58;;;;;;;3.60;2.88;;;13.30;99.90;;;;;;4997140;28;20025;-34
2023/08/31 06:23:24;;;;;;;2.85;2.60;;;13.40;99.90;;;;;;4996842;28;20034;-34
2023/08/31 06:25:49;;;;;;;3.95;2.80;;;13.50;99.90;;;;;;4999576;28;20115;-32
2023/08/31 06:28:16;;;;;;;5.00;2.90;;;13.60;99.90;;;;;;5000408;28;20037;-36
2023/08/31 06:30:46;;;;;;;3.00;2.55;;;13.60;99.90;;;;;;4993264;28;20584;-33
2023/08/31 06:33:15;;;;;;;3.70;2.60;;;13.70;99.90;;;;;;4999454;28;20040;-35
2023/08/31 06:35:41;;;;;;;3.80;2.70;;;13.70;99.90;;;;;;4997071;28;20072;-32
2023/08/31 06:38:07;;;;;;;3.25;2.40;;;13.70;99.90;;;;;;4997381;28;20058;-32
2023/08/31 06:40:33;;;;;;;2.92;2.50;;;13.80;99.90;;;;;;4995733;28;20041;-33
2023/08/31 06:42:59;;;;;;;2.95;2.65;;;13.80;99.90;;;;;;5000154;28;20033;-33
2023/08/31 06:45:25;;;;;;;5.05;2.50;;;13.80;99.90;;;;;;5002530;28;20045;-34
2023/08/31 06:47:50;;;;;;;3.28;2.30;;;13.90;99.90;;;;;;4999549;28;20617;-32
2023/08/31 06:50:16;;;;;;;3.42;2.70;;;13.90;99.90;;;;;;5000279;28;20025;-32
2023/08/31 06:52:43;;;;;;;3.15;2.88;;;14.00;99.90;;;;;;5003157;28;20033;-32
2023/08/31 06:55:10;;;;;;;2.75;2.25;;;14.10;99.90;;;;;;5004661;28;20021;-35
2023/08/31 06:57:37;;;;;;;3.63;2.35;;;14.20;99.90;;;;;;5000234;28;20022;-36
2023/08/31 07:00:03;;;;;;;3.10;2.28;;;14.30;99.90;;;;;;4998543;28;20056;-33
2023/08/31 07:02:29;;;;;;;3.50;2.13;;;14.30;99.90;;;;;;5001788;28;20041;-34
2023/08/31 07:04:55;;;;;;;2.53;2.20;;;14.20;99.90;;;;;;5002388;28;20038;-34
2023/08/31 07:07:20;;;;;;;3.40;2.35;;;14.20;99.90;;;;;;5003479;28;20048;-33
2023/08/31 07:09:48;;;;;;;4.05;2.50;;;14.20;99.90;;;;;;5000247;28;20116;-32
2023/08/31 07:12:14;;;;;;;6.05;2.30;;;14.20;99.90;;;;;;4998897;28;20030;-38
2023/08/31 07:14:40;;;;;;;3.50;2.35;;;14.40;99.90;;;;;;5002322;28;20456;-34
2023/08/31 07:17:05;;;;;;;4.03;2.70;;;14.50;99.90;;;;;;5000750;28;20423;-35
2023/08/31 07:19:31;;;;;;;4.10;1.95;;;14.70;99.90;;;;;;5002546;28;20045;-33
2023/08/31 07:21:57;;;;;;;5.53;2.10;;;14.70;99.90;;;;;;4997308;28;20491;-31
2023/08/31 07:24:23;;;;;;;3.20;2.40;;;14.80;99.90;;;;;;5004472;28;20037;-36
2023/08/31 07:26:50;;;;;;;6.18;2.38;;;14.90;99.90;;;;;;5001743;28;20468;-33
2023/08/31 07:29:15;;;;;;;3.67;2.20;;;14.90;99.90;;;;;;5003736;28;20058;-34
2023/08/31 07:31:41;;;;;;;3.75;2.10;;;14.90;99.90;;;;;;5001765;28;20080;-33
2023/08/31 07:34:07;;;;;;;3.33;2.00;;;15.00;99.90;;;;;;5001658;28;20749;-32
2023/08/31 07:36:33;;;;;;;4.25;1.80;;;15.10;99.90;;;;;;4997483;28;20085;-34
2023/08/31 07:38:58;;;;;;;4.55;2.20;;;15.20;99.90;;;;;;4999363;28;20425;-35
2023/08/31 07:41:24;;;;;;;2.20;2.00;;;15.20;99.90;;;;;;5000113;28;20114;-36
2023/08/31 07:43:50;;;;;;;3.75;2.00;;;15.30;99.90;;;;;;4994786;28;20582;-33
2023/08/31 07:46:16;;;;;;;3.25;1.80;;;15.30;99.90;;;;;;4999793;28;20030;-33
2023/08/31 07:48:42;;;;;;;2.22;1.77;;;15.30;99.90;;;;;;5003649;28;20133;-33
2023/08/31 07:51:08;;;;;;;3.75;1.92;;;15.30;99.90;;;;;;5002713;28;20120;-35
2023/08/31 07:53:34;;;;;;;2.70;1.77;;;15.20;99.90;;;;;;5000499;28;20032;-33
2023/08/31 07:55:59;;;;;;;3.63;2.03;;;15.20;99.90;;;;;;5003686;28;20125;-32
2023/08/31 07:58:26;;;;;;;3.28;2.00;;;15.20;99.90;;;;;;4998642;28;20034;-34
2023/08/31 08:00:57;;;;;;;2.78;1.70;;;15.30;99.90;;;;;;4998378;28;20033;-35
2023/08/31 08:03:23;;;;;;;1.73;1.63;;;15.40;99.90;;;;;;5000984;28;20387;-33
2023/08/31 08:05:49;;;;;;;2.90;1.85;;;15.50;99.90;;;;;;4998324;28;20113;-38
2023/08/31 08:08:15;;;;;;;4.30;1.70;;;15.50;99.90;;;;;;4996854;28;20732;-36
2023/08/31 08:10:42;;;;;;;2.78;1.77;;;15.50;99.90;;;;;;5002025;28;20069;-34
2023/08/31 08:13:08;;;;;;;2.10;1.50;;;15.40;99.90;;;;;;4996495;28;20033;-35
2023/08/31 08:15:34;;;;;;;3.47;1.98;;;15.40;99.90;;;;;;5002859;28;20708;-32
2023/08/31 08:18:00;;;;;;;2.92;1.70;;;15.40;99.90;;;;;;4996535;28;20033;-34
2023/08/31 08:20:28;;;;;;;7.85;1.80;;;15.40;99.90;;;;;;4996024;28;20687;-35
2023/08/31 08:22:53;;;;;;;3.22;1.90;;;15.40;99.90;;;;;;5000947;28;20113;-35
2023/08/31 08:25:20;;;;;;;3.15;1.88;;;15.40;99.90;;;;;;5000939;28;20465;-35
2023/08/31 08:27:46;;;;;;;3.05;1.73;;;15.40;99.90;;;;;;4996949;28;20053;-34
2023/08/31 08:30:12;;;;;;;2.58;1.63;;;15.30;99.90;;;;;;5000101;28;20526;-35
2023/08/31 08:32:37;;;;;;;3.45;1.77;;;15.30;99.90;;;;;;4996361;28;20038;-34
2023/08/31 08:35:03;;;;;;;2.63;1.67;;;15.30;99.90;;;;;;5002396;28;20034;-32
2023/08/31 08:37:29;;;;;;;2.78;1.70;;;15.30;99.90;;;;;;4958864;28;1117026;-35
2023/08/31 08:39:55;;;;;;;2.78;1.58;;;15.30;99.90;;;;;;4994811;28;20089;-36
2023/08/31 08:42:24;;;;;;;4.28;2.08;;;15.20;99.90;;;;;;5000033;28;21930;-35
2023/08/31 08:44:50;;;;;;;3.33;1.98;;;15.20;99.90;;;;;;4997940;28;20091;-33
2023/08/31 08:47:17;;;;;;;4.20;1.63;;;15.30;99.90;;;;;;4997451;28;20030;-37
2023/08/31 08:49:43;;;;;;;2.88;1.70;;;15.40;99.90;;;;;;4995022;28;20030;-33
2023/08/31 08:52:10;;;;;;;2.55;1.88;;;15.50;99.90;;;;;;4998331;28;20103;-32
2023/08/31 08:54:35;;;;;;;4.03;1.60;;;15.60;99.90;;;;;;4998909;28;20025;-34
2023/08/31 08:57:03;;;;;;;2.17;1.50;;;15.70;99.90;;;;;;5000084;28;20403;-36
2023/08/31 08:59:32;;;;;;;2.92;1.92;;;16.00;99.90;;;;;;4998232;28;20411;-34
2023/08/31 09:01:58;;;;;;;2.70;1.70;;;16.30;99.90;;;;;;4996909;28;20042;-34
2023/08/31 09:04:23;;;;;;;3.72;1.80;;;16.20;99.90;;;;;;4998163;28;20034;-32
2023/08/31 09:06:52;;;;;;;2.75;1.40;;;16.10;99.90;;;;;;4997244;28;20117;-34
2023/08/31 09:09:18;;;;;;;2.85;1.33;;;16.10;99.90;;;;;;4996711;28;20136;-35
2023/08/31 09:11:45;;;;;;;3.17;1.83;;;16.20;99.90;;;;;;4998434;28;20026;-36
2023/08/31 09:14:19;;;;;;;4.50;1.70;;;16.50;99.90;;;;;;4994343;28;20048;-35
2023/08/31 09:16:49;;;;;;;4.20;1.77;;;16.80;99.90;;;;;;4996710;28;20032;-34
2023/08/31 09:19:23;;;;;;;2.97;1.58;;;16.90;99.90;;;;;;4997691;28;20052;-34
2023/08/31 09:23:28;;;;;;;3.95;1.73;;;16.60;99.90;;;;;;5060395;27;20907;-32
2023/08/31 09:25:55;;;;;;;5.65;1.90;;;16.50;99.90;;;;;;5053236;28;20387;-30
2023/08/31 09:28:23;;;;;;;3.72;1.70;;;16.70;99.90;;;;;;5058781;28;20040;-30
2023/08/31 09:30:50;;;;;;;4.22;1.45;;;16.80;99.90;;;;;;5042618;28;20587;-33
2023/08/31 09:33:17;;;;;;;5.05;1.88;;;16.60;99.90;;;;;;5021207;28;20036;-32
2023/08/31 09:35:52;;;;;;;3.08;1.55;;;16.50;99.90;;;;;;5018758;28;20633;-33
2023/08/31 09:38:18;;;;;;;4.45;1.80;;;16.70;99.90;;;;;;5036638;28;20038;-33
2023/08/31 09:40:44;;;;;;;2.53;1.65;;;16.90;99.90;;;;;;5018102;28;20052;-35
2023/08/31 09:43:10;;;;;;;3.20;1.70;;;16.90;99.90;;;;;;5019773;28;20475;-36
2023/08/31 09:45:37;;;;;;;2.22;1.80;;;16.80;99.90;;;;;;5020744;28;20030;-32
2023/08/31 09:48:04;;;;;;;5.50;2.20;;;16.60;99.90;;;;;;5017686;28;20475;-31
2023/08/31 09:50:34;;;;;;;1.95;1.77;;;16.60;99.90;;;;;;5021509;28;20614;-31
2023/08/31 09:53:05;;;;;;;4.85;1.80;;;16.70;99.90;;;;;;5021438;28;20025;-35
2023/08/31 09:55:32;;;;;;;2.95;1.60;;;16.80;99.90;;;;;;5018132;28;20160;-31
2023/08/31 09:58:00;;;;;;;3.47;1.67;;;16.90;99.90;;;;;;5019888;28;20029;-31
2023/08/31 10:00:27;;;;;;;2.78;1.60;;;16.80;99.90;;;;;;5019168;28;20471;-33
2023/08/31 10:03:00;;;;;;;3.42;1.70;;;16.60;99.90;;;;;;5020443;28;20037;-31
2023/08/31 10:05:25;;;;;;;2.25;1.77;;;16.40;99.90;;;;;;5020646;28;20056;-32
2023/08/31 10:07:51;;;;;;;1.83;1.58;;;16.20;99.90;;;;;;5017781;28;20033;-32
2023/08/31 10:10:18;;;;;;;2.58;1.38;;;16.20;99.90;;;;;;5020982;28;20053;-31
2023/08/31 10:12:49;;;;;;;2.03;1.58;;;16.10;99.90;;;;;;5019955;28;20030;-34
2023/08/31 10:15:16;;;;;;;4.22;1.85;;;16.20;99.90;;;;;;5019758;28;20276;-30
2023/08/31 10:17:42;;;;;;;2.75;1.48;;;16.30;99.90;;;;;;5018436;28;20037;-34
2023/08/31 10:20:11;;;;;;;5.22;2.00;;;16.20;99.90;;;;;;5017170;28;20042;-34
2023/08/31 10:22:37;;;;;;;5.18;1.98;;;16.20;99.90;;;;;;5017786;28;20061;-31
2023/08/31 10:25:05;;;;;;;4.25;1.88;;;16.20;99.90;;;;;;5034612;28;20029;-34
2023/08/31 10:27:38;;;;;;;4.07;1.95;;;16.30;99.90;;;;;;5018089;28;20034;-39
2023/08/31 10:30:22;;;;;;;2.08;1.70;;;16.40;99.90;;;;;;5017258;28;20017;-36
2023/08/31 10:33:09;;;;;;;2.33;1.55;;;16.40;99.90;;;;;;5015480;28;20037;-32
2023/08/31 10:35:52;;;;;;;4.63;1.92;;;16.30;99.90;;;;;;5008564;28;20036;-37
2023/08/31 10:38:30;;;;;;;2.70;1.83;;;16.20;99.90;;;;;;5006039;28;20069;-33
2023/08/31 10:41:18;;;;;;;5.07;1.73;;;16.30;99.90;;;;;;5004038;28;20026;-39
2023/08/31 10:43:45;;;;;;;3.13;1.60;;;16.40;99.90;;;;;;5005646;28;20100;-37
2023/08/31 10:46:28;;;;;;;4.03;1.70;;;16.40;99.90;;;;;;5006227;28;20024;-39
2023/08/31 10:49:01;;;;;;;2.67;1.83;;;16.30;99.90;;;;;;5002303;28;20026;-36
2023/08/31 10:51:31;;;;;;;3.28;1.80;;;16.20;99.90;;;;;;5005360;28;20030;-34
2023/08/31 10:54:24;;;;;;;2.08;1.40;;;16.30;99.90;;;;;;5005257;28;20099;-36
2023/08/31 10:57:07;;;;;;;2.17;1.58;;;16.20;99.90;;;;;;4999266;28;20116;-40
2023/08/31 10:59:43;;;;;;;1.95;1.52;;;16.00;99.90;;;;;;5006704;28;20073;-38
2023/08/31 11:02:09;;;;;;;1.70;1.60;;;16.00;99.90;;;;;;5007631;28;20065;-37
2023/08/31 11:04:54;;;;;;;2.88;1.38;;;15.90;99.90;;;;;;5003912;28;20503;-41
2023/08/31 11:07:24;;;;;;;1.80;1.40;;;15.90;99.90;;;;;;5000752;28;20022;-40
2023/08/31 11:09:50;;;;;;;2.85;1.67;;;15.90;99.90;;;;;;5005222;28;20022;-38
2023/08/31 11:12:15;;;;;;;2.75;1.50;;;16.20;99.90;;;;;;5008520;28;20111;-38
2023/08/31 11:14:41;;;;;;;4.00;1.98;;;16.60;99.90;;;;;;5004465;28;20446;-39
2023/08/31 11:17:07;;;;;;;2.70;1.52;;;16.80;99.90;;;;;;5005563;28;20108;-41
2023/08/31 11:19:34;;;;;;;5.30;1.55;;;17.00;99.90;;;;;;5003961;28;20088;-40
2023/08/31 11:22:03;;;;;;;1.95;1.60;;;17.30;99.90;;;;;;5001083;28;20038;-37
2023/08/31 11:24:33;;;;;;;3.00;1.48;;;17.40;99.90;;;;;;5003353;28;20026;-41
2023/08/31 11:26:59;;;;;;;2.70;1.60;;;17.60;99.90;;;;;;5003713;28;20101;-39
2023/08/31 11:29:25;;;;;;;5.05;1.95;;;17.80;99.90;;;;;;5004919;28;20036;-39
2023/08/31 11:31:51;;;;;;;1.73;1.30;;;17.60;99.90;;;;;;5004423;28;20794;-37
2023/08/31 11:34:18;;;;;;;1.63;1.40;;;17.60;99.90;;;;;;5005066;28;20030;-41
2023/08/31 11:36:47;;;;;;;2.60;1.70;;;17.60;99.90;;;;;;5006287;28;20022;-32
2023/08/31 11:39:13;;;;;;;;;;;17.60;99.90;;;;;;5003094;28;20033;-34
2023/08/31 11:41:43;;;;;;;3.13;1.50;;;17.70;99.90;;;;;;5019532;28;19944;-34
2023/08/31 11:44:17;;;;;;;3.03;1.45;;;17.70;99.90;;;;;;5007145;28;20114;-32
2023/08/31 11:46:50;;;;;;;2.33;1.70;;;17.70;99.90;;;;;;5005213;28;20034;-32
2023/08/31 11:49:19;;;;;;;3.28;2.03;;;17.50;99.90;;;;;;5003460;28;20030;-35
2023/08/31 11:51:49;;;;;;;6.00;1.50;;;17.20;99.90;;;;;;5014523;28;20030;-33
2023/08/31 11:54:16;;;;;;;1.40;1.30;;;17.20;99.90;;;;;;5006921;28;20392;-33
2023/08/31 11:56:46;;;;;;;2.65;1.70;;;17.30;99.90;;;;;;5003782;28;20041;-37
2023/08/31 11:59:15;;;;;;;3.15;1.67;;;17.60;99.90;;;;;;5006318;28;20030;-32
2023/08/31 12:01:48;;;;;;;3.03;1.60;;;17.90;99.90;;;;;;4999234;28;20041;-35
2023/08/31 12:04:17;;;;;;;4.50;1.70;;;18.20;99.90;;;;;;5001116;28;20029;-31
2023/08/31 12:06:48;;;;;;;3.88;1.63;;;18.50;99.90;;;;;;5004587;28;20034;-35
2023/08/31 12:09:14;;;;;;;2.42;1.40;;;18.60;99.90;;;;;;5004554;28;20036;-32
2023/08/31 12:11:39;;;;;;;1.95;1.48;;;18.70;99.90;;;;;;5005928;28;20840;-32
2023/08/31 12:14:25;;;;;;;2.30;1.50;;;18.70;99.90;;;;;;5006734;28;20026;-32
2023/08/31 12:16:59;;;;;;;2.17;1.50;;;18.90;99.90;;;;;;5003138;28;20125;-34
2023/08/31 12:19:30;;;;;;;3.28;1.33;;;19.00;99.90;;;;;;5002019;28;20647;-35
2023/08/31 12:21:57;;;;;;;2.55;1.60;;;19.20;99.90;;;;;;5009340;28;20603;-31
2023/08/31 12:24:24;;;;;;;2.85;1.75;;;19.30;99.90;;;;;;5006687;28;20475;-33
2023/08/31 12:26:50;;;;;;;3.15;1.58;;;18.80;99.90;;;;;;5005125;28;20116;-32
2023/08/31 12:29:17;;;;;;;1.98;1.20;;;18.60;99.90;;;;;;5001851;28;20022;-30
2023/08/31 12:31:43;;;;;;;2.92;1.40;;;18.80;99.90;;;;;;5002751;28;20044;-34
2023/08/31 12:34:10;;;;;;;3.63;1.38;;;19.00;99.90;;;;;;5001172;28;20049;-32
2023/08/31 12:36:38;;;;;;;3.00;1.50;;;19.40;99.90;;;;;;5003088;28;20407;-32
2023/08/31 12:39:07;;;;;;;3.03;1.63;;;19.50;99.90;;;;;;5000212;28;20563;-31
2023/08/31 12:41:33;;;;;;;4.00;1.40;;;19.70;99.90;;;;;;5003881;28;20045;-33
2023/08/31 12:44:00;;;;;;;1.95;1.27;;;19.90;99.90;;;;;;5004665;28;20550;-32
2023/08/31 12:46:26;;;;;;;4.22;1.52;;;19.70;99.90;;;;;;5001916;28;20495;-35
2023/08/31 12:48:52;;;;;;;5.00;1.60;;;19.40;99.90;;;;;;5002962;28;20022;-34
2023/08/31 12:51:18;;;;;;;2.10;1.70;;;19.10;99.90;;;;;;5003320;28;20033;-34
2023/08/31 12:53:44;;;;;;;13.32;2.13;;;19.30;99.90;;;;;;5002909;28;20022;-35